sensor_id;sensor_type;location;lat;lon;timestamp;pressure;altitude;pressure_sealevel;temperature;humidity
81125;BME280;72192;52.114;5.424;2023-10-13T00:01:30;101255.53;;;16.26;100.00
81125;BME280;72192;52.114;5.424;2023-10-13T00:04:18;101257.44;;;16.25;100.00
81125;BME280;72192;52.114;5.424;2023-10-13T00:07:10;101262.03;;;16.25;100.00
81125;BME280;72192;52.114;5.424;2023-10-13T00:09:59;101256.38;;;16.26;100.00
81125;BME280;72192;52.114;5.424;2023-10-13T00:12:46;101246.97;;;16.29;100.00
81125;BME280;72192;52.114;5.424;2023-10-13T00:15:43;101242.13;;;16.24;100.00
81125;BME280;72192;52.114;5.424;2023-10-13T00:18:44;101246.03;;;16.22;100.00
81125;BME280;72192;52.114;5.424;2023-10-13T00:21:33;101237.03;;;16.21;100.00
81125;BME280;72192;52.114;5.424;2023-10-13T00:24:22;101232.63;;;16.20;100.00
81125;BME280;72192;52.114;5.424;2023-10-13T00:27:18;101230.09;;;16.19;100.00
81125;BME280;72192;52.114;5.424;2023-10-13T00:30:16;101228.19;;;16.19;100.00
81125;BME280;72192;52.114;5.424;2023-10-13T00:33:19;101230.94;;;16.19;100.00
81125;BME280;72192;52.114;5.424;2023-10-13T00:36:09;101222.56;;;16.21;100.00
81125;BME280;72192;52.114;5.424;2023-10-13T00:39:04;101218.63;;;16.23;100.00
81125;BME280;72192;52.114;5.424;2023-10-13T00:41:53;101219.66;;;16.22;100.00
81125;BME280;72192;52.114;5.424;2023-10-13T00:44:52;101219.81;;;16.21;100.00
81125;BME280;72192;52.114;5.424;2023-10-13T00:47:41;101213.94;;;16.17;100.00
81125;BME280;72192;52.114;5.424;2023-10-13T00:50:36;101209.72;;;16.15;100.00
81125;BME280;72192;52.114;5.424;2023-10-13T00:53:25;101201.75;;;16.13;100.00
81125;BME280;72192;52.114;5.424;2023-10-13T00:56:15;101201.75;;;16.13;100.00
81125;BME280;72192;52.114;5.424;2023-10-13T00:59:05;101207.19;;;16.13;100.00
81125;BME280;72192;52.114;5.424;2023-10-13T01:01:56;101195.44;;;16.13;100.00
81125;BME280;72192;52.114;5.424;2023-10-13T01:04:44;101188.75;;;16.15;100.00
81125;BME280;72192;52.114;5.424;2023-10-13T01:07:33;101189.59;;;16.16;100.00
81125;BME280;72192;52.114;5.424;2023-10-13T01:10:24;101192.31;;;16.16;100.00
81125;BME280;72192;52.114;5.424;2023-10-13T01:13:18;101180.38;;;16.17;100.00
81125;BME280;72192;52.114;5.424;2023-10-13T01:16:08;101181.22;;;16.17;100.00
81125;BME280;72192;52.114;5.424;2023-10-13T01:18:57;101167.59;;;16.17;100.00
81125;BME280;72192;52.114;5.424;2023-10-13T01:21:51;101164.88;;;16.17;100.00
81125;BME280;72192;52.114;5.424;2023-10-13T01:24:50;101164.69;;;16.19;100.00
81125;BME280;72192;52.114;5.424;2023-10-13T01:27:48;101160.28;;;16.18;100.00
81125;BME280;72192;52.114;5.424;2023-10-13T01:30:35;101157.00;;;16.22;100.00
81125;BME280;72192;52.114;5.424;2023-10-13T01:33:26;101154.44;;;16.21;100.00
81125;BME280;72192;52.114;5.424;2023-10-13T01:36:15;101146.25;;;16.21;100.00
81125;BME280;72192;52.114;5.424;2023-10-13T01:39:03;101144.22;;;16.23;100.00
81125;BME280;72192;52.114;5.424;2023-10-13T01:41:52;101150.88;;;16.20;100.00
81125;BME280;72192;52.114;5.424;2023-10-13T01:44:44;101148.34;;;16.19;100.00
81125;BME280;72192;52.114;5.424;2023-10-13T01:47:33;101139.13;;;16.20;100.00
81125;BME280;72192;52.114;5.424;2023-10-13T01:50:22;101131.97;;;16.19;100.00
81125;BME280;72192;52.114;5.424;2023-10-13T01:52:57;101132.19;;;16.17;100.00
81125;BME280;72192;52.114;5.424;2023-10-13T01:56:05;101127.78;;;16.16;100.00
81125;BME280;72192;52.114;5.424;2023-10-13T01:58:57;101124.22;;;16.16;100.00
81125;BME280;72192;52.114;5.424;2023-10-13T02:01:45;101124.22;;;16.16;100.00
81125;BME280;72192;52.114;5.424;2023-10-13T02:04:33;101128.63;;;16.17;100.00
81125;BME280;72192;52.114;5.424;2023-10-13T02:07:21;101118.13;;;16.14;100.00
81125;BME280;72192;52.114;5.424;2023-10-13T02:10:16;101109.94;;;16.14;100.00
81125;BME280;72192;52.114;5.424;2023-10-13T02:13:14;101108.25;;;16.13;100.00
81125;BME280;72192;52.114;5.424;2023-10-13T02:16:04;101111.81;;;16.13;100.00
81125;BME280;72192;52.114;5.424;2023-10-13T02:18:53;101106.38;;;16.13;100.00
81125;BME280;72192;52.114;5.424;2023-10-13T02:21:42;101100.25;;;16.11;100.00
81125;BME280;72192;52.114;5.424;2023-10-13T02:24:31;101102.13;;;16.11;100.00
81125;BME280;72192;52.114;5.424;2023-10-13T02:27:19;101101.09;;;16.12;100.00
81125;BME280;72192;52.114;5.424;2023-10-13T02:30:10;101087.88;;;16.09;100.00
81125;BME280;72192;52.114;5.424;2023-10-13T02:33:02;101089.94;;;16.06;100.00
81125;BME280;72192;52.114;5.424;2023-10-13T02:35:52;101085.53;;;16.05;100.00
81125;BME280;72192;52.114;5.424;2023-10-13T02:38:40;101080.09;;;16.05;100.00
81125;BME280;72192;52.114;5.424;2023-10-13T02:41:36;101070.44;;;16.03;100.00
81125;BME280;72192;52.114;5.424;2023-10-13T02:44:24;101072.28;;;16.02;100.00
81125;BME280;72192;52.114;5.424;2023-10-13T02:47:18;101057.81;;;16.02;100.00
81125;BME280;72192;52.114;5.424;2023-10-13T02:50:06;101058.22;;;15.99;100.00
81125;BME280;72192;52.114;5.424;2023-10-13T02:52:59;101046.88;;;15.95;100.00
81125;BME280;72192;52.114;5.424;2023-10-13T02:55:53;101043.50;;;15.93;100.00
81125;BME280;72192;52.114;5.424;2023-10-13T02:58:52;101033.00;;;15.90;100.00
81125;BME280;72192;52.114;5.424;2023-10-13T03:01:43;101034.88;;;15.90;100.00
81125;BME280;72192;52.114;5.424;2023-10-13T03:04:30;101029.41;;;15.90;100.00
81125;BME280;72192;52.114;5.424;2023-10-13T03:07:19;101011.41;;;15.89;100.00
81125;BME280;72192;52.114;5.424;2023-10-13T03:10:10;101015.16;;;15.88;100.00
81125;BME280;72192;52.114;5.424;2023-10-13T03:12:58;100986.25;;;15.87;100.00
81125;BME280;72192;52.114;5.424;2023-10-13T03:15:48;100988.13;;;15.86;100.00
81125;BME280;72192;52.114;5.424;2023-10-13T03:18:36;100973.66;;;15.86;100.00
81125;BME280;72192;52.114;5.424;2023-10-13T03:21:24;100972.00;;;15.85;100.00
81125;BME280;72192;52.114;5.424;2023-10-13T03:24:16;100978.28;;;15.85;100.00
81125;BME280;72192;52.114;5.424;2023-10-13T03:27:09;100983.09;;;15.83;100.00
81125;BME280;72192;52.114;5.424;2023-10-13T03:30:03;100981.38;;;15.82;100.00
81125;BME280;72192;52.114;5.424;2023-10-13T03:32:57;100978.47;;;15.84;100.00
81125;BME280;72192;52.114;5.424;2023-10-13T03:35:45;100968.59;;;15.83;100.00
81125;BME280;72192;52.114;5.424;2023-10-13T03:38:40;100963.34;;;15.81;100.00
81125;BME280;72192;52.114;5.424;2023-10-13T03:41:31;100973.59;;;15.79;100.00
81125;BME280;72192;52.114;5.424;2023-10-13T03:44:23;100948.25;;;15.78;100.00
81125;BME280;72192;52.114;5.424;2023-10-13T03:47:16;100938.41;;;15.77;100.00
81125;BME280;72192;52.114;5.424;2023-10-13T03:50:05;100927.72;;;15.76;100.00
81125;BME280;72192;52.114;5.424;2023-10-13T03:53:03;100923.09;;;15.76;100.00
81125;BME280;72192;52.114;5.424;2023-10-13T03:55:52;100914.94;;;15.76;100.00
81125;BME280;72192;52.114;5.424;2023-10-13T03:58:55;100889.78;;;15.74;100.00
81125;BME280;72192;52.114;5.424;2023-10-13T04:01:48;100900.69;;;15.74;100.00
81125;BME280;72192;52.114;5.424;2023-10-13T04:04:36;100895.22;;;15.74;100.00
81125;BME280;72192;52.114;5.424;2023-10-13T04:07:34;100886.03;;;15.75;100.00
81125;BME280;72192;52.114;5.424;2023-10-13T04:10:48;100870.53;;;15.76;100.00
81125;BME280;72192;52.114;5.424;2023-10-13T04:13:39;100869.69;;;15.75;100.00
81125;BME280;72192;52.114;5.424;2023-10-13T04:16:45;100861.53;;;15.75;100.00
81125;BME280;72192;52.114;5.424;2023-10-13T04:19:41;100849.59;;;15.76;100.00
81125;BME280;72192;52.114;5.424;2023-10-13T04:22:48;100843.31;;;15.76;100.00
81125;BME280;72192;52.114;5.424;2023-10-13T04:25:36;100836.81;;;15.77;100.00
81125;BME280;72192;52.114;5.424;2023-10-13T04:28:27;100823.19;;;15.77;100.00
81125;BME280;72192;52.114;5.424;2023-10-13T04:31:24;100832.22;;;15.77;100.00
81125;BME280;72192;52.114;5.424;2023-10-13T04:34:32;100833.25;;;15.76;100.00
81125;BME280;72192;52.114;5.424;2023-10-13T04:37:26;100818.78;;;15.76;100.00
81125;BME280;72192;52.114;5.424;2023-10-13T04:40:20;100809.59;;;15.77;100.00
81125;BME280;72192;52.114;5.424;2023-10-13T04:43:11;100800.38;;;15.78;100.00
81125;BME280;72192;52.114;5.424;2023-10-13T04:46:25;100808.34;;;15.80;100.00
81125;BME280;72192;52.114;5.424;2023-10-13T04:49:40;100793.47;;;15.82;100.00
81125;BME280;72192;52.114;5.424;2023-10-13T04:52:29;100799.75;;;15.83;100.00
81125;BME280;72192;52.114;5.424;2023-10-13T04:55:49;100798.53;;;15.85;100.00
81125;BME280;72192;52.114;5.424;2023-10-13T04:58:49;100786.19;;;15.89;100.00
81125;BME280;72192;52.114;5.424;2023-10-13T05:01:55;100776.78;;;15.92;100.00
81125;BME280;72192;52.114;5.424;2023-10-13T05:04:43;100780.81;;;15.96;100.00
81125;BME280;72192;52.114;5.424;2023-10-13T05:07:50;100773.69;;;16.01;100.00
81125;BME280;72192;52.114;5.424;2023-10-13T05:11:13;100760.53;;;16.12;100.00
81125;BME280;72192;52.114;5.424;2023-10-13T05:14:20;100753.50;;;16.24;100.00
81125;BME280;72192;52.114;5.424;2023-10-13T05:17:27;100743.44;;;16.31;100.00
81125;BME280;72192;52.114;5.424;2023-10-13T05:20:33;100752.91;;;16.42;100.00
81125;BME280;72192;52.114;5.424;2023-10-13T05:23:40;100741.81;;;16.50;100.00
81125;BME280;72192;52.114;5.424;2023-10-13T05:26:47;100745.63;;;16.55;100.00
81125;BME280;72192;52.114;5.424;2023-10-13T05:29:53;100755.28;;;16.58;100.00
81125;BME280;72192;52.114;5.424;2023-10-13T05:33:00;100754.84;;;16.61;100.00
81125;BME280;72192;52.114;5.424;2023-10-13T05:36:13;100745.84;;;16.60;100.00
81125;BME280;72192;52.114;5.424;2023-10-13T05:39:20;100751.50;;;16.59;100.00
81125;BME280;72192;52.114;5.424;2023-10-13T05:42:27;100739.13;;;16.56;100.00
81125;BME280;72192;52.114;5.424;2023-10-13T05:45:35;100747.72;;;16.53;100.00
81125;BME280;72192;52.114;5.424;2023-10-13T05:48:40;100737.44;;;16.49;100.00
81125;BME280;72192;52.114;5.424;2023-10-13T05:51:46;100731.75;;;16.44;100.00
81125;BME280;72192;52.114;5.424;2023-10-13T05:54:47;100716.84;;;16.40;100.00
81125;BME280;72192;52.114;5.424;2023-10-13T05:57:54;100726.28;;;16.37;100.00
81125;BME280;72192;52.114;5.424;2023-10-13T06:01:00;100722.47;;;16.31;100.00
81125;BME280;72192;52.114;5.424;2023-10-13T06:04:07;100726.88;;;16.26;100.00
81125;BME280;72192;52.114;5.424;2023-10-13T06:07:13;100721.44;;;16.26;100.00
81125;BME280;72192;52.114;5.424;2023-10-13T06:10:20;100728.13;;;16.23;100.00
81125;BME280;72192;52.114;5.424;2023-10-13T06:13:27;100718.91;;;16.24;100.00
81125;BME280;72192;52.114;5.424;2023-10-13T06:16:34;100710.53;;;16.26;100.00
81125;BME280;72192;52.114;5.424;2023-10-13T06:19:41;100701.94;;;16.29;100.00
81125;BME280;72192;52.114;5.424;2023-10-13T06:22:47;100688.31;;;16.29;100.00
81125;BME280;72192;52.114;5.424;2023-10-13T06:25:56;100692.91;;;16.28;100.00
81125;BME280;72192;52.114;5.424;2023-10-13T06:29:01;100685.59;;;16.29;100.00
81125;BME280;72192;52.114;5.424;2023-10-13T06:31:42;100684.53;;;16.30;100.00
81125;BME280;72192;52.114;5.424;2023-10-13T06:34:24;100690.59;;;16.32;100.00
81125;BME280;72192;52.114;5.424;2023-10-13T06:37:21;100676.59;;;16.35;100.00
81125;BME280;72192;52.114;5.424;2023-10-13T06:40:13;100690.63;;;16.39;100.00
81125;BME280;72192;52.114;5.424;2023-10-13T06:43:20;100685.44;;;16.44;100.00
81125;BME280;72192;52.114;5.424;2023-10-13T06:46:01;100675.16;;;16.46;100.00
81125;BME280;72192;52.114;5.424;2023-10-13T06:48:50;100679.13;;;16.50;100.00
81125;BME280;72192;52.114;5.424;2023-10-13T06:51:39;100683.78;;;16.56;100.00
81125;BME280;72192;52.114;5.424;2023-10-13T06:54:28;100676.84;;;16.60;100.00
81125;BME280;72192;52.114;5.424;2023-10-13T06:57:20;100674.34;;;16.65;100.00
81125;BME280;72192;52.114;5.424;2023-10-13T07:00:09;100668.06;;;16.71;100.00
81125;BME280;72192;52.114;5.424;2023-10-13T07:03:08;100658.03;;;16.78;100.00
81125;BME280;72192;52.114;5.424;2023-10-13T07:05:58;100662.22;;;16.87;100.00
81125;BME280;72192;52.114;5.424;2023-10-13T07:08:38;100646.06;;;16.92;100.00
81125;BME280;72192;52.114;5.424;2023-10-13T07:11:19;100644.38;;;16.98;100.00
81125;BME280;72192;52.114;5.424;2023-10-13T07:14:19;100646.50;;;17.03;100.00
81125;BME280;72192;52.114;5.424;2023-10-13T07:17:06;100637.88;;;17.06;100.00
81125;BME280;72192;52.114;5.424;2023-10-13T07:19:47;100621.50;;;17.12;100.00
81125;BME280;72192;52.114;5.424;2023-10-13T07:22:41;100600.28;;;17.14;100.00
81125;BME280;72192;52.114;5.424;2023-10-13T07:25:54;100591.66;;;17.17;100.00
81125;BME280;72192;52.114;5.424;2023-10-13T07:28:41;100583.06;;;17.20;100.00
81125;BME280;72192;52.114;5.424;2023-10-13T07:31:25;100588.31;;;17.22;100.00
81125;BME280;72192;52.114;5.424;2023-10-13T07:34:15;100592.28;;;17.26;100.00
81125;BME280;72192;52.114;5.424;2023-10-13T07:37:12;100577.59;;;17.27;100.00
81125;BME280;72192;52.114;5.424;2023-10-13T07:40:04;100589.75;;;17.31;100.00
81125;BME280;72192;52.114;5.424;2023-10-13T07:43:08;100580.53;;;17.32;100.00
81125;BME280;72192;52.114;5.424;2023-10-13T07:45:58;100589.09;;;17.36;100.00
81125;BME280;72192;52.114;5.424;2023-10-13T07:48:53;100587.84;;;17.38;100.00
81125;BME280;72192;52.114;5.424;2023-10-13T07:51:32;100588.47;;;17.40;100.00
81125;BME280;72192;52.114;5.424;2023-10-13T07:54:19;100582.81;;;17.42;100.00
81125;BME280;72192;52.114;5.424;2023-10-13T07:57:13;100584.47;;;17.43;100.00
81125;BME280;72192;52.114;5.424;2023-10-13T07:59:52;100591.00;;;17.42;100.00
81125;BME280;72192;52.114;5.424;2023-10-13T08:02:59;100572.72;;;17.42;100.00
81125;BME280;72192;52.114;5.424;2023-10-13T08:06:03;100587.38;;;17.48;100.00
81125;BME280;72192;52.114;5.424;2023-10-13T08:09:00;100592.00;;;17.54;100.00
81125;BME280;72192;52.114;5.424;2023-10-13T08:12:01;100589.03;;;17.62;100.00
81125;BME280;72192;52.114;5.424;2023-10-13T08:14:52;100585.41;;;17.68;100.00
81125;BME280;72192;52.114;5.424;2023-10-13T08:18:00;100575.34;;;17.75;100.00
81125;BME280;72192;52.114;5.424;2023-10-13T08:21:04;100576.97;;;17.83;100.00
81125;BME280;72192;52.114;5.424;2023-10-13T08:23:47;100572.13;;;17.85;100.00
81125;BME280;72192;52.114;5.424;2023-10-13T08:26:42;100575.91;;;17.91;100.00
81125;BME280;72192;52.114;5.424;2023-10-13T08:29:49;100569.53;;;17.97;100.00
81125;BME280;72192;52.114;5.424;2023-10-13T08:32:43;100561.31;;;18.03;100.00
81125;BME280;72192;52.114;5.424;2023-10-13T08:36:03;100557.91;;;18.08;99.43
81125;BME280;72192;52.114;5.424;2023-10-13T08:39:17;100552.41;;;18.15;99.92
81125;BME280;72192;52.114;5.424;2023-10-13T08:42:28;100543.75;;;18.18;100.00
81125;BME280;72192;52.114;5.424;2023-10-13T08:45:28;100548.34;;;18.24;97.53
81125;BME280;72192;52.114;5.424;2023-10-13T08:48:17;100553.59;;;18.25;98.04
81125;BME280;72192;52.114;5.424;2023-10-13T08:51:13;100553.13;;;18.28;98.22
81125;BME280;72192;52.114;5.424;2023-10-13T08:54:18;100548.53;;;18.29;99.43
81125;BME280;72192;52.114;5.424;2023-10-13T08:57:06;100519.44;;;18.34;97.12
81125;BME280;72192;52.114;5.424;2023-10-13T09:00:16;100521.97;;;18.36;96.25
81125;BME280;72192;52.114;5.424;2023-10-13T09:03:15;100532.13;;;18.54;95.19
81125;BME280;72192;52.114;5.424;2023-10-13T09:06:15;100515.72;;;18.54;95.98
81125;BME280;72192;52.114;5.424;2023-10-13T09:09:06;100532.34;;;18.52;95.91
81125;BME280;72192;52.114;5.424;2023-10-13T09:11:55;100538.03;;;18.51;96.46
81125;BME280;72192;52.114;5.424;2023-10-13T09:14:56;100525.63;;;18.48;96.27
81125;BME280;72192;52.114;5.424;2023-10-13T09:17:49;100528.59;;;18.47;95.62
81125;BME280;72192;52.114;5.424;2023-10-13T09:20:38;100515.38;;;18.44;96.60
81125;BME280;72192;52.114;5.424;2023-10-13T09:23:21;100517.72;;;18.40;95.97
81125;BME280;72192;52.114;5.424;2023-10-13T09:26:05;100519.19;;;18.43;95.89
81125;BME280;72192;52.114;5.424;2023-10-13T09:28:58;100507.34;;;18.49;96.11
81125;BME280;72192;52.114;5.424;2023-10-13T09:31:41;100512.81;;;18.49;96.56
81125;BME280;72192;52.114;5.424;2023-10-13T09:34:31;100503.69;;;18.55;96.20
81125;BME280;72192;52.114;5.424;2023-10-13T09:37:27;100491.66;;;18.62;93.68
81125;BME280;72192;52.114;5.424;2023-10-13T09:40:18;100485.31;;;18.69;93.46
81125;BME280;72192;52.114;5.424;2023-10-13T09:43:12;100496.03;;;18.70;94.88
81125;BME280;72192;52.114;5.424;2023-10-13T09:46:10;100485.69;;;18.72;94.03
81125;BME280;72192;52.114;5.424;2023-10-13T09:49:10;100483.09;;;18.77;96.87
81125;BME280;72192;52.114;5.424;2023-10-13T09:51:54;100477.78;;;18.82;91.68
81125;BME280;72192;52.114;5.424;2023-10-13T09:55:03;100468.28;;;18.85;93.73
81125;BME280;72192;52.114;5.424;2023-10-13T09:58:14;100469.13;;;18.85;92.69
81125;BME280;72192;52.114;5.424;2023-10-13T10:01:06;100459.00;;;18.86;91.67
81125;BME280;72192;52.114;5.424;2023-10-13T10:04:11;100470.78;;;18.86;91.75
81125;BME280;72192;52.114;5.424;2023-10-13T10:06:59;100461.31;;;18.89;88.88
81125;BME280;72192;52.114;5.424;2023-10-13T10:09:56;100450.97;;;18.91;89.91
81125;BME280;72192;52.114;5.424;2023-10-13T10:13:00;100453.41;;;18.99;88.78
81125;BME280;72192;52.114;5.424;2023-10-13T10:16:08;100444.84;;;19.07;88.03
81125;BME280;72192;52.114;5.424;2023-10-13T10:19:03;100443.13;;;19.13;87.60
81125;BME280;72192;52.114;5.424;2023-10-13T10:22:03;100444.09;;;19.18;88.64
81125;BME280;72192;52.114;5.424;2023-10-13T10:25:05;100445.06;;;19.24;86.73
81125;BME280;72192;52.114;5.424;2023-10-13T10:28:06;100436.41;;;19.27;86.70
81125;BME280;72192;52.114;5.424;2023-10-13T10:30:47;100425.59;;;19.32;86.56
81125;BME280;72192;52.114;5.424;2023-10-13T10:33:37;100426.34;;;19.39;85.76
81125;BME280;72192;52.114;5.424;2023-10-13T10:36:30;100419.31;;;19.43;86.48
81125;BME280;72192;52.114;5.424;2023-10-13T10:39:11;100410.78;;;19.52;84.93
81125;BME280;72192;52.114;5.424;2023-10-13T10:42:09;100406.44;;;19.62;84.34
81125;BME280;72192;52.114;5.424;2023-10-13T10:45:15;100415.91;;;19.78;82.95
81125;BME280;72192;52.114;5.424;2023-10-13T10:48:11;100404.94;;;19.90;81.91
81125;BME280;72192;52.114;5.424;2023-10-13T10:50:59;100410.69;;;20.00;81.16
81125;BME280;72192;52.114;5.424;2023-10-13T10:53:45;100407.13;;;20.11;80.55
81125;BME280;72192;52.114;5.424;2023-10-13T10:56:36;100403.44;;;20.17;79.26
81125;BME280;72192;52.114;5.424;2023-10-13T10:59:15;100395.06;;;20.24;79.53
81125;BME280;72192;52.114;5.424;2023-10-13T11:02:10;100383.63;;;20.27;79.55
81125;BME280;72192;52.114;5.424;2023-10-13T11:05:13;100384.34;;;20.34;78.03
81125;BME280;72192;52.114;5.424;2023-10-13T11:08:06;100381.47;;;20.41;78.49
81125;BME280;72192;52.114;5.424;2023-10-13T11:10:58;100378.28;;;20.44;77.90
81125;BME280;72192;52.114;5.424;2023-10-13T11:13:43;100381.84;;;20.44;77.39
81125;BME280;72192;52.114;5.424;2023-10-13T11:16:33;100381.72;;;20.39;77.52
81125;BME280;72192;52.114;5.424;2023-10-13T11:19:17;100369.09;;;20.38;77.44
81125;BME280;72192;52.114;5.424;2023-10-13T11:22:16;100358.94;;;20.39;77.61
81125;BME280;72192;52.114;5.424;2023-10-13T11:25:26;100350.81;;;20.32;77.25
81125;BME280;72192;52.114;5.424;2023-10-13T11:28:21;100353.22;;;20.28;76.80
81125;BME280;72192;52.114;5.424;2023-10-13T11:31:07;100330.47;;;20.28;76.28
81125;BME280;72192;52.114;5.424;2023-10-13T11:33:57;100335.78;;;20.34;75.99
81125;BME280;72192;52.114;5.424;2023-10-13T11:36:40;100328.41;;;20.35;75.25
81125;BME280;72192;52.114;5.424;2023-10-13T11:39:30;100315.41;;;20.42;75.22
81125;BME280;72192;52.114;5.424;2023-10-13T11:42:22;100329.03;;;20.49;74.28
81125;BME280;72192;52.114;5.424;2023-10-13T11:45:05;100331.97;;;20.59;74.13
81125;BME280;72192;52.114;5.424;2023-10-13T11:48:08;100301.53;;;20.60;74.09
81125;BME280;72192;52.114;5.424;2023-10-13T11:50:54;100317.75;;;20.62;74.08
81125;BME280;72192;52.114;5.424;2023-10-13T11:53:35;100307.97;;;20.66;71.77
81125;BME280;72192;52.114;5.424;2023-10-13T11:56:16;100300.59;;;20.67;71.20
81125;BME280;72192;52.114;5.424;2023-10-13T11:58:59;100315.47;;;20.71;70.92
81125;BME280;72192;52.114;5.424;2023-10-13T12:01:47;100312.84;;;20.76;70.48
81125;BME280;72192;52.114;5.424;2023-10-13T12:04:56;100304.66;;;20.92;70.35
81125;BME280;72192;52.114;5.424;2023-10-13T12:07:37;100314.06;;;20.97;69.86
81125;BME280;72192;52.114;5.424;2023-10-13T12:10:41;100321.56;;;21.01;69.22
81125;BME280;72192;52.114;5.424;2023-10-13T12:13:50;100313.63;;;20.88;70.55
81125;BME280;72192;52.114;5.424;2023-10-13T12:16:30;100318.56;;;20.74;70.51
81125;BME280;72192;52.114;5.424;2023-10-13T12:19:12;100316.88;;;20.73;71.07
81125;BME280;72192;52.114;5.424;2023-10-13T12:21:59;100326.31;;;20.77;70.86
81125;BME280;72192;52.114;5.424;2023-10-13T12:24:44;100324.66;;;20.76;70.79
81125;BME280;72192;52.114;5.424;2023-10-13T12:27:40;100317.91;;;20.84;70.80
81125;BME280;72192;52.114;5.424;2023-10-13T12:30:26;100296.81;;;20.84;70.95
81125;BME280;72192;52.114;5.424;2023-10-13T12:33:27;100299.41;;;20.91;70.04
81125;BME280;72192;52.114;5.424;2023-10-13T12:36:15;100306.81;;;20.90;70.55
81125;BME280;72192;52.114;5.424;2023-10-13T12:39:08;100289.00;;;20.93;69.51
81125;BME280;72192;52.114;5.424;2023-10-13T12:41:48;100284.13;;;20.95;69.96
81125;BME280;72192;52.114;5.424;2023-10-13T12:44:46;100304.06;;;20.90;70.47
81125;BME280;72192;52.114;5.424;2023-10-13T12:47:45;100295.81;;;20.90;69.86
81125;BME280;72192;52.114;5.424;2023-10-13T12:50:43;100313.63;;;20.88;70.46
81125;BME280;72192;52.114;5.424;2023-10-13T12:53:31;100300.97;;;20.87;70.40
81125;BME280;72192;52.114;5.424;2023-10-13T12:56:11;100310.06;;;20.87;71.10
81125;BME280;72192;52.114;5.424;2023-10-13T12:58:50;100299.56;;;20.84;70.94
81125;BME280;72192;52.114;5.424;2023-10-13T13:01:32;100298.38;;;20.80;70.82
81125;BME280;72192;52.114;5.424;2023-10-13T13:04:12;100319.16;;;20.76;71.64
81125;BME280;72192;52.114;5.424;2023-10-13T13:07:10;100308.44;;;20.75;72.16
81125;BME280;72192;52.114;5.424;2023-10-13T13:09:52;100309.66;;;20.67;73.21
81125;BME280;72192;52.114;5.424;2023-10-13T13:12:34;100311.09;;;20.58;73.61
81125;BME280;72192;52.114;5.424;2023-10-13T13:15:14;100308.97;;;20.48;75.68
81125;BME280;72192;52.114;5.424;2023-10-13T13:17:54;100300.53;;;20.26;75.81
81125;BME280;72192;52.114;5.424;2023-10-13T13:20:34;100309.34;;;20.05;77.01
81125;BME280;72192;52.114;5.424;2023-10-13T13:23:23;100300.06;;;19.94;78.68
81125;BME280;72192;52.114;5.424;2023-10-13T13:26:12;100315.34;;;19.79;79.83
81125;BME280;72192;52.114;5.424;2023-10-13T13:29:02;100298.91;;;19.67;81.17
81125;BME280;72192;52.114;5.424;2023-10-13T13:31:51;100309.09;;;19.48;83.00
81125;BME280;72192;52.114;5.424;2023-10-13T13:34:34;100286.53;;;19.34;82.51
81125;BME280;72192;52.114;5.424;2023-10-13T13:37:14;100277.72;;;19.20;84.58
81125;BME280;72192;52.114;5.424;2023-10-13T13:40:06;100282.41;;;19.02;86.54
81125;BME280;72192;52.114;5.424;2023-10-13T13:43:08;100279.72;;;18.83;87.66
81125;BME280;72192;52.114;5.424;2023-10-13T13:45:59;100288.38;;;18.69;88.11
81125;BME280;72192;52.114;5.424;2023-10-13T13:48:40;100283.63;;;18.57;89.55
81125;BME280;72192;52.114;5.424;2023-10-13T13:51:20;100270.88;;;18.51;88.91
81125;BME280;72192;52.114;5.424;2023-10-13T13:54:06;100284.63;;;18.45;89.85
81125;BME280;72192;52.114;5.424;2023-10-13T13:56:52;100280.59;;;18.47;88.53
81125;BME280;72192;52.114;5.424;2023-10-13T13:59:31;100287.19;;;18.58;88.32
81125;BME280;72192;52.114;5.424;2023-10-13T14:02:20;100302.91;;;18.62;88.48
81125;BME280;72192;52.114;5.424;2023-10-13T14:05:04;100290.16;;;18.75;86.82
81125;BME280;72192;52.114;5.424;2023-10-13T14:07:50;100301.66;;;18.65;89.01
81125;BME280;72192;52.114;5.424;2023-10-13T14:10:30;100285.00;;;18.48;89.83
81125;BME280;72192;52.114;5.424;2023-10-13T14:13:11;100297.63;;;18.31;91.95
81125;BME280;72192;52.114;5.424;2023-10-13T14:15:55;100298.00;;;18.16;92.98
81125;BME280;72192;52.114;5.424;2023-10-13T14:18:35;100307.84;;;17.99;94.91
81125;BME280;72192;52.114;5.424;2023-10-13T14:21:16;100317.41;;;17.90;95.68
81125;BME280;72192;52.114;5.424;2023-10-13T14:24:15;100319.41;;;17.76;96.86
81125;BME280;72192;52.114;5.424;2023-10-13T14:26:58;100317.16;;;17.66;97.45
81125;BME280;72192;52.114;5.424;2023-10-13T14:29:55;100323.13;;;17.57;99.55
81125;BME280;72192;52.114;5.424;2023-10-13T14:32:44;100317.94;;;17.48;99.95
81125;BME280;72192;52.114;5.424;2023-10-13T14:35:35;100330.75;;;17.48;100.00
81125;BME280;72192;52.114;5.424;2023-10-13T14:38:24;100338.72;;;17.49;100.00
81125;BME280;72192;52.114;5.424;2023-10-13T14:41:12;100339.78;;;17.48;100.00
81125;BME280;72192;52.114;5.424;2023-10-13T14:44:00;100335.59;;;17.46;100.00
81125;BME280;72192;52.114;5.424;2023-10-13T14:46:33;100338.56;;;17.44;100.00
81125;BME280;72192;52.114;5.424;2023-10-13T14:49:26;100331.66;;;17.42;100.00
81125;BME280;72192;52.114;5.424;2023-10-13T14:52:12;100325.38;;;17.41;100.00
81125;BME280;72192;52.114;5.424;2023-10-13T14:54:56;100334.59;;;17.40;100.00
81125;BME280;72192;52.114;5.424;2023-10-13T14:57:37;100335.63;;;17.39;100.00